sensor_id;sensor_type;location;lat;lon;timestamp;pressure;altitude;pressure_sealevel;temperature;humidity
54389;BME280;40975;50.390;8.640;2023-02-13T00:00:02;101234.56;;;5.51;100.00
54389;BME280;40975;50.390;8.640;2023-02-13T00:02:29;101239.78;;;5.52;100.00
54389;BME280;40975;50.390;8.640;2023-02-13T00:04:55;101240.63;;;5.53;100.00
54389;BME280;40975;50.390;8.640;2023-02-13T00:07:20;101238.91;;;5.52;100.00
54389;BME280;40975;50.390;8.640;2023-02-13T00:09:45;101232.66;;;5.54;100.00
54389;BME280;40975;50.390;8.640;2023-02-13T00:12:11;101237.63;;;5.62;100.00
54389;BME280;40975;50.390;8.640;2023-02-13T00:14:37;101235.78;;;5.64;100.00
54389;BME280;40975;50.390;8.640;2023-02-13T00:17:04;101226.16;;;5.63;100.00
54389;BME280;40975;50.390;8.640;2023-02-13T00:19:29;101220.03;;;5.63;100.00
54389;BME280;40975;50.390;8.640;2023-02-13T00:21:55;101226.16;;;5.63;100.00
54389;BME280;40975;50.390;8.640;2023-02-13T00:24:20;101218.19;;;5.65;100.00
54389;BME280;40975;50.390;8.640;2023-02-13T00:26:45;101225.13;;;5.67;100.00
54389;BME280;40975;50.390;8.640;2023-02-13T00:29:11;101218.06;;;5.68;100.00
54389;BME280;40975;50.390;8.640;2023-02-13T00:31:36;101216.41;;;5.65;100.00
54389;BME280;40975;50.390;8.640;2023-02-13T00:34:01;101221.56;;;5.68;100.00
54389;BME280;40975;50.390;8.640;2023-02-13T00:36:27;101222.34;;;5.70;100.00
54389;BME280;40975;50.390;8.640;2023-02-13T00:38:53;101211.06;;;5.67;100.00
54389;BME280;40975;50.390;8.640;2023-02-13T00:41:19;101218.84;;;5.70;100.00
54389;BME280;40975;50.390;8.640;2023-02-13T00:43:45;101222.34;;;5.70;100.00
54389;BME280;40975;50.390;8.640;2023-02-13T00:46:11;101217.16;;;5.69;100.00
54389;BME280;40975;50.390;8.640;2023-02-13T00:48:37;101218.94;;;5.68;100.00
54389;BME280;40975;50.390;8.640;2023-02-13T00:51:03;101219.78;;;5.69;100.00
54389;BME280;40975;50.390;8.640;2023-02-13T00:53:29;101220.69;;;5.68;100.00
54389;BME280;40975;50.390;8.640;2023-02-13T00:55:55;101223.34;;;5.68;100.00
54389;BME280;40975;50.390;8.640;2023-02-13T00:58:21;101224.25;;;5.67;100.00
54389;BME280;40975;50.390;8.640;2023-02-13T01:00:47;101214.50;;;5.69;100.00
54389;BME280;40975;50.390;8.640;2023-02-13T01:03:14;101201.03;;;5.54;100.00
54389;BME280;40975;50.390;8.640;2023-02-13T01:05:39;101224.31;;;5.65;100.00
54389;BME280;40975;50.390;8.640;2023-02-13T01:08:05;101217.41;;;5.63;100.00
54389;BME280;40975;50.390;8.640;2023-02-13T01:10:31;101217.41;;;5.63;100.00
54389;BME280;40975;50.390;8.640;2023-02-13T01:12:57;101201.22;;;5.50;100.00
54389;BME280;40975;50.390;8.640;2023-02-13T01:15:22;101213.91;;;5.62;100.00
54389;BME280;40975;50.390;8.640;2023-02-13T01:17:48;101212.25;;;5.59;100.00
54389;BME280;40975;50.390;8.640;2023-02-13T01:20:13;101218.31;;;5.62;100.00
54389;BME280;40975;50.390;8.640;2023-02-13T01:22:39;101217.44;;;5.61;100.00
54389;BME280;40975;50.390;8.640;2023-02-13T01:25:05;101211.22;;;5.64;100.00
54389;BME280;40975;50.390;8.640;2023-02-13T01:27:32;101213.06;;;5.62;100.00
54389;BME280;40975;50.390;8.640;2023-02-13T01:29:58;101207.91;;;5.58;100.00
54389;BME280;40975;50.390;8.640;2023-02-13T01:32:23;101213.09;;;5.60;100.00
54389;BME280;40975;50.390;8.640;2023-02-13T01:34:48;101208.63;;;5.62;100.00
54389;BME280;40975;50.390;8.640;2023-02-13T01:37:14;101207.19;;;5.55;100.00
54389;BME280;40975;50.390;8.640;2023-02-13T01:39:39;101207.97;;;5.57;100.00
54389;BME280;40975;50.390;8.640;2023-02-13T01:42:14;101208.91;;;5.56;100.00
54389;BME280;40975;50.390;8.640;2023-02-13T01:47:41;101200.91;;;5.57;100.00
54389;BME280;40975;50.390;8.640;2023-02-13T01:52:39;101190.38;;;5.57;100.00
54389;BME280;40975;50.390;8.640;2023-02-13T01:55:07;101197.38;;;5.58;100.00
54389;BME280;40975;50.390;8.640;2023-02-13T01:57:34;101193.22;;;5.53;100.00
54389;BME280;40975;50.390;8.640;2023-02-13T02:00:13;101193.22;;;5.53;100.00
54389;BME280;40975;50.390;8.640;2023-02-13T02:02:59;101178.47;;;5.49;100.00
54389;BME280;40975;50.390;8.640;2023-02-13T02:05:27;101184.50;;;5.51;100.00
54389;BME280;40975;50.390;8.640;2023-02-13T02:07:57;101177.66;;;5.47;100.00
54389;BME280;40975;50.390;8.640;2023-02-13T02:10:23;101191.38;;;5.55;100.00
54389;BME280;40975;50.390;8.640;2023-02-13T02:12:59;101189.47;;;5.58;100.00
54389;BME280;40975;50.390;8.640;2023-02-13T02:15:27;101191.25;;;5.58;100.00
54389;BME280;40975;50.390;8.640;2023-02-13T02:17:53;101185.31;;;5.53;100.00
54389;BME280;40975;50.390;8.640;2023-02-13T02:26:21;101189.66;;;5.54;100.00
54389;BME280;40975;50.390;8.640;2023-02-13T02:34:40;101189.97;;;5.46;100.00
54389;BME280;40975;50.390;8.640;2023-02-13T02:40:24;101189.03;;;5.47;100.00
54389;BME280;40975;50.390;8.640;2023-02-13T02:45:38;101191.75;;;5.45;100.00
54389;BME280;40975;50.390;8.640;2023-02-13T02:51:39;101186.38;;;5.49;100.00
54389;BME280;40975;50.390;8.640;2023-02-13T02:54:13;101182.13;;;5.44;100.00
54389;BME280;40975;50.390;8.640;2023-02-13T02:57:09;101189.31;;;5.41;100.00
54389;BME280;40975;50.390;8.640;2023-02-13T02:59:36;101183.63;;;5.29;100.00
54389;BME280;40975;50.390;8.640;2023-02-13T03:02:22;101191.22;;;5.37;100.00
54389;BME280;40975;50.390;8.640;2023-02-13T03:05:18;101188.50;;;5.39;100.00
54389;BME280;40975;50.390;8.640;2023-02-13T03:08:03;101192.06;;;5.38;100.00
54389;BME280;40975;50.390;8.640;2023-02-13T03:10:32;101189.53;;;5.35;100.00
54389;BME280;40975;50.390;8.640;2023-02-13T03:13:43;101185.22;;;5.34;100.00
54389;BME280;40975;50.390;8.640;2023-02-13T03:16:16;101192.44;;;5.28;100.00
54389;BME280;40975;50.390;8.640;2023-02-13T03:19:01;101184.06;;;5.19;100.00
54389;BME280;40975;50.390;8.640;2023-02-13T03:21:58;101193.09;;;5.11;100.00
54389;BME280;40975;50.390;8.640;2023-02-13T03:28:00;101178.94;;;4.92;100.00
54389;BME280;40975;50.390;8.640;2023-02-13T03:30:27;101192.34;;;4.86;100.00
54389;BME280;40975;50.390;8.640;2023-02-13T03:33:05;101189.09;;;4.79;100.00
54389;BME280;40975;50.390;8.640;2023-02-13T03:38:52;101191.13;;;4.48;100.00
54389;BME280;40975;50.390;8.640;2023-02-13T03:41:28;101194.28;;;4.33;100.00
54389;BME280;40975;50.390;8.640;2023-02-13T03:46:40;101197.66;;;4.13;100.00
54389;BME280;40975;50.390;8.640;2023-02-13T03:49:17;101198.81;;;4.04;100.00
54389;BME280;40975;50.390;8.640;2023-02-13T03:52:08;101187.16;;;3.86;100.00
54389;BME280;40975;50.390;8.640;2023-02-13T03:54:42;101201.59;;;3.74;100.00
54389;BME280;40975;50.390;8.640;2023-02-13T03:57:27;101202.25;;;3.54;100.00
54389;BME280;40975;50.390;8.640;2023-02-13T04:00:13;101201.41;;;3.25;100.00
54389;BME280;40975;50.390;8.640;2023-02-13T04:05:31;101206.00;;;2.90;100.00
54389;BME280;40975;50.390;8.640;2023-02-13T04:08:00;101197.78;;;2.72;100.00
54389;BME280;40975;50.390;8.640;2023-02-13T04:10:30;101207.88;;;2.55;100.00
54389;BME280;40975;50.390;8.640;2023-02-13T04:13:17;101206.50;;;2.41;100.00
54389;BME280;40975;50.390;8.640;2023-02-13T04:15:59;101208.81;;;2.21;100.00
54389;BME280;40975;50.390;8.640;2023-02-13T04:18:29;101206.38;;;2.14;100.00
54389;BME280;40975;50.390;8.640;2023-02-13T04:20:55;101208.63;;;1.95;100.00
54389;BME280;40975;50.390;8.640;2023-02-13T04:23:20;101195.25;;;1.71;100.00
54389;BME280;40975;50.390;8.640;2023-02-13T04:25:49;101201.78;;;1.55;100.00
54389;BME280;40975;50.390;8.640;2023-02-13T04:28:15;101201.88;;;1.50;100.00
54389;BME280;40975;50.390;8.640;2023-02-13T04:30:41;101208.84;;;1.51;100.00
54389;BME280;40975;50.390;8.640;2023-02-13T04:33:06;101201.34;;;1.36;100.00
54389;BME280;40975;50.390;8.640;2023-02-13T04:35:32;101207.47;;;1.36;100.00
54389;BME280;40975;50.390;8.640;2023-02-13T04:37:57;101199.66;;;1.33;100.00
54389;BME280;40975;50.390;8.640;2023-02-13T04:40:22;101196.22;;;1.31;100.00
54389;BME280;40975;50.390;8.640;2023-02-13T04:42:48;101202.28;;;1.33;100.00
54389;BME280;40975;50.390;8.640;2023-02-13T04:45:13;101205.06;;;1.26;100.00
54389;BME280;40975;50.390;8.640;2023-02-13T04:47:39;101193.97;;;1.16;100.00
54389;BME280;40975;50.390;8.640;2023-02-13T04:50:05;101195.81;;;1.11;100.00
54389;BME280;40975;50.390;8.640;2023-02-13T04:52:30;101188.09;;;1.06;100.00
54389;BME280;40975;50.390;8.640;2023-02-13T04:54:55;101194.03;;;1.14;100.00
54389;BME280;40975;50.390;8.640;2023-02-13T04:57:21;101201.06;;;1.11;100.00
54389;BME280;40975;50.390;8.640;2023-02-13T04:59:46;101191.38;;;1.16;100.00
54389;BME280;40975;50.390;8.640;2023-02-13T05:02:11;101202.00;;;1.08;100.00
54389;BME280;40975;50.390;8.640;2023-02-13T05:04:36;101206.47;;;1.03;100.00
54389;BME280;40975;50.390;8.640;2023-02-13T05:07:02;101201.47;;;0.92;100.00
54389;BME280;40975;50.390;8.640;2023-02-13T05:09:27;101208.47;;;0.91;100.00
54389;BME280;40975;50.390;8.640;2023-02-13T05:11:53;101206.88;;;0.84;100.00
54389;BME280;40975;50.390;8.640;2023-02-13T05:14:19;101206.00;;;0.84;100.00
54389;BME280;40975;50.390;8.640;2023-02-13T05:16:44;101200.00;;;0.80;100.00
54389;BME280;40975;50.390;8.640;2023-02-13T05:19:09;101207.94;;;0.75;100.00
54389;BME280;40975;50.390;8.640;2023-02-13T05:21:35;101195.13;;;0.63;100.00
54389;BME280;40975;50.390;8.640;2023-02-13T05:24:19;101196.00;;;0.62;100.00
54389;BME280;40975;50.390;8.640;2023-02-13T05:26:44;101192.50;;;0.65;100.00
54389;BME280;40975;50.390;8.640;2023-02-13T05:29:10;101200.38;;;0.61;100.00
54389;BME280;40975;50.390;8.640;2023-02-13T05:31:47;101206.59;;;0.56;100.00
54389;BME280;40975;50.390;8.640;2023-02-13T05:34:13;101200.63;;;0.49;100.00
54389;BME280;40975;50.390;8.640;2023-02-13T05:36:39;101204.13;;;0.50;100.00
54389;BME280;40975;50.390;8.640;2023-02-13T05:39:04;101201.50;;;0.48;100.00
54389;BME280;40975;50.390;8.640;2023-02-13T05:41:30;101207.66;;;0.45;100.00
54389;BME280;40975;50.390;8.640;2023-02-13T05:43:55;101194.75;;;0.38;100.00
54389;BME280;40975;50.390;8.640;2023-02-13T05:46:21;101193.13;;;0.32;100.00
54389;BME280;40975;50.390;8.640;2023-02-13T05:48:46;101199.19;;;0.34;100.00
54389;BME280;40975;50.390;8.640;2023-02-13T05:51:11;101183.66;;;0.26;100.00
54389;BME280;40975;50.390;8.640;2023-02-13T05:53:37;101202.78;;;0.28;100.00
54389;BME280;40975;50.390;8.640;2023-02-13T05:56:03;101199.38;;;0.25;100.00
54389;BME280;40975;50.390;8.640;2023-02-13T05:58:29;101191.66;;;0.19;100.00
54389;BME280;40975;50.390;8.640;2023-02-13T06:00:56;101194.31;;;0.15;100.00
54389;BME280;40975;50.390;8.640;2023-02-13T06:03:26;101187.47;;;0.10;100.00
54389;BME280;40975;50.390;8.640;2023-02-13T06:05:53;101197.06;;;0.09;100.00
54389;BME280;40975;50.390;8.640;2023-02-13T06:08:19;101199.63;;;0.11;100.00
54389;BME280;40975;50.390;8.640;2023-02-13T06:10:46;101199.75;;;0.03;100.00
54389;BME280;40975;50.390;8.640;2023-02-13T06:13:11;101207.63;;;0.02;100.00
54389;BME280;40975;50.390;8.640;2023-02-13T06:15:37;101203.31;;;0.01;100.00
54389;BME280;40975;50.390;8.640;2023-02-13T06:18:02;101200.78;;;-0.04;100.00
54389;BME280;40975;50.390;8.640;2023-02-13T06:20:27;101197.31;;;-0.06;100.00
54389;BME280;40975;50.390;8.640;2023-02-13T06:22:53;101195.72;;;-0.13;100.00
54389;BME280;40975;50.390;8.640;2023-02-13T06:25:19;101199.19;;;-0.13;100.00
54389;BME280;40975;50.390;8.640;2023-02-13T06:27:44;101193.25;;;-0.21;100.00
54389;BME280;40975;50.390;8.640;2023-02-13T06:30:11;101195.03;;;-0.25;100.00
54389;BME280;40975;50.390;8.640;2023-02-13T06:32:36;101196.72;;;-0.22;100.00
54389;BME280;40975;50.390;8.640;2023-02-13T06:35:01;101198.50;;;-0.23;100.00
54389;BME280;40975;50.390;8.640;2023-02-13T06:37:27;101190.63;;;-0.21;100.00
54389;BME280;40975;50.390;8.640;2023-02-13T06:39:52;101187.25;;;-0.28;100.00
54389;BME280;40975;50.390;8.640;2023-02-13T06:42:17;101194.28;;;-0.30;100.00
54389;BME280;40975;50.390;8.640;2023-02-13T06:44:43;101197.81;;;-0.34;100.00
54389;BME280;40975;50.390;8.640;2023-02-13T06:47:09;101198.78;;;-0.40;100.00
54389;BME280;40975;50.390;8.640;2023-02-13T06:49:34;101202.16;;;-0.35;100.00
54389;BME280;40975;50.390;8.640;2023-02-13T06:51:59;101204.00;;;-0.40;100.00
54389;BME280;40975;50.390;8.640;2023-02-13T06:54:25;101200.41;;;-0.34;100.00
54389;BME280;40975;50.390;8.640;2023-02-13T06:56:50;101200.50;;;-0.39;100.00
54389;BME280;40975;50.390;8.640;2023-02-13T06:59:15;101205.63;;;-0.34;100.00
54389;BME280;40975;50.390;8.640;2023-02-13T07:01:41;101209.94;;;-0.30;100.00
54389;BME280;40975;50.390;8.640;2023-02-13T07:04:06;101200.38;;;-0.31;100.00
54389;BME280;40975;50.390;8.640;2023-02-13T07:06:31;101211.53;;;-0.24;100.00
54389;BME280;40975;50.390;8.640;2023-02-13T07:08:56;101207.16;;;-0.22;100.00
54389;BME280;40975;50.390;8.640;2023-02-13T07:11:23;101213.16;;;-0.16;100.00
54389;BME280;40975;50.390;8.640;2023-02-13T07:13:49;101193.09;;;-0.13;100.00
54389;BME280;40975;50.390;8.640;2023-02-13T07:16:14;101198.28;;;-0.10;100.00
54389;BME280;40975;50.390;8.640;2023-02-13T07:18:39;101211.16;;;-0.01;100.00
54389;BME280;40975;50.390;8.640;2023-02-13T07:21:05;101208.56;;;-0.03;100.00
54389;BME280;40975;50.390;8.640;2023-02-13T07:23:31;101206.59;;;0.10;100.00
54389;BME280;40975;50.390;8.640;2023-02-13T07:26:00;101209.00;;;0.21;100.00
54389;BME280;40975;50.390;8.640;2023-02-13T07:28:26;101206.28;;;0.27;100.00
54389;BME280;40975;50.390;8.640;2023-02-13T07:30:52;101206.19;;;0.34;100.00
54389;BME280;40975;50.390;8.640;2023-02-13T07:33:17;101206.88;;;0.40;100.00
54389;BME280;40975;50.390;8.640;2023-02-13T07:35:49;101202.31;;;0.52;100.00
54389;BME280;40975;50.390;8.640;2023-02-13T07:38:16;101213.56;;;0.57;100.00
54389;BME280;40975;50.390;8.640;2023-02-13T07:40:42;101213.31;;;0.69;100.00
54389;BME280;40975;50.390;8.640;2023-02-13T07:43:07;101219.84;;;0.89;100.00
54389;BME280;40975;50.390;8.640;2023-02-13T07:45:33;101213.50;;;1.01;100.00
54389;BME280;40975;50.390;8.640;2023-02-13T07:47:58;101183.00;;;1.00;100.00
54389;BME280;40975;50.390;8.640;2023-02-13T07:50:24;101214.53;;;1.31;100.00
54389;BME280;40975;50.390;8.640;2023-02-13T07:52:57;101214.19;;;1.47;100.00
54389;BME280;40975;50.390;8.640;2023-02-13T07:55:23;101220.72;;;1.65;100.00
54389;BME280;40975;50.390;8.640;2023-02-13T07:57:49;101216.84;;;1.80;100.00
54389;BME280;40975;50.390;8.640;2023-02-13T08:00:15;101218.38;;;1.89;100.00
54389;BME280;40975;50.390;8.640;2023-02-13T08:02:40;101227.41;;;2.44;100.00
54389;BME280;40975;50.390;8.640;2023-02-13T08:05:06;101220.06;;;3.16;100.00
54389;BME280;40975;50.390;8.640;2023-02-13T08:07:32;101225.06;;;3.79;100.00
54389;BME280;40975;50.390;8.640;2023-02-13T08:09:57;101231.16;;;4.06;100.00
54389;BME280;40975;50.390;8.640;2023-02-13T08:12:41;101228.28;;;4.14;100.00
54389;BME280;40975;50.390;8.640;2023-02-13T08:15:09;101231.16;;;4.06;100.00
54389;BME280;40975;50.390;8.640;2023-02-13T08:17:35;101224.50;;;3.96;100.00
54389;BME280;40975;50.390;8.640;2023-02-13T08:20:00;101229.81;;;3.94;100.00
54389;BME280;40975;50.390;8.640;2023-02-13T08:22:26;101227.03;;;3.99;100.00
54389;BME280;40975;50.390;8.640;2023-02-13T08:24:51;101230.50;;;3.99;100.00
54389;BME280;40975;50.390;8.640;2023-02-13T08:27:16;101217.69;;;3.90;100.00
54389;BME280;40975;50.390;8.640;2023-02-13T08:29:42;101231.91;;;4.10;100.00
54389;BME280;40975;50.390;8.640;2023-02-13T08:32:07;101233.94;;;4.27;100.00
54389;BME280;40975;50.390;8.640;2023-02-13T08:34:32;101235.38;;;4.35;100.00
54389;BME280;40975;50.390;8.640;2023-02-13T08:36:58;101235.69;;;4.51;100.00
54389;BME280;40975;50.390;8.640;2023-02-13T08:39:23;101239.94;;;4.56;100.00
54389;BME280;40975;50.390;8.640;2023-02-13T08:41:48;101237.19;;;4.59;100.00
54389;BME280;40975;50.390;8.640;2023-02-13T08:44:14;101238.59;;;4.69;100.00
54389;BME280;40975;50.390;8.640;2023-02-13T08:46:39;101234.53;;;4.84;100.00
54389;BME280;40975;50.390;8.640;2023-02-13T08:49:04;101245.44;;;4.97;100.00
54389;BME280;40975;50.390;8.640;2023-02-13T08:51:30;101236.19;;;5.09;100.00
54389;BME280;40975;50.390;8.640;2023-02-13T08:53:55;101215.69;;;5.17;100.00
54389;BME280;40975;50.390;8.640;2023-02-13T08:56:21;101229.16;;;5.54;100.00
54389;BME280;40975;50.390;8.640;2023-02-13T08:58:47;101224.44;;;6.05;100.00
54389;BME280;40975;50.390;8.640;2023-02-13T09:01:13;101237.97;;;6.58;100.00
54389;BME280;40975;50.390;8.640;2023-02-13T09:03:39;101238.28;;;7.09;100.00
54389;BME280;40975;50.390;8.640;2023-02-13T09:06:04;101232.66;;;8.75;100.00
54389;BME280;40975;50.390;8.640;2023-02-13T09:08:29;101237.16;;;9.22;100.00
54389;BME280;40975;50.390;8.640;2023-02-13T09:10:57;101236.50;;;8.69;100.00
54389;BME280;40975;50.390;8.640;2023-02-13T09:13:23;101235.78;;;8.83;100.00
54389;BME280;40975;50.390;8.640;2023-02-13T09:15:48;101237.59;;;8.31;100.00
54389;BME280;40975;50.390;8.640;2023-02-13T09:18:14;101245.34;;;7.64;100.00
54389;BME280;40975;50.390;8.640;2023-02-13T09:20:39;101249.06;;;7.04;100.00
54389;BME280;40975;50.390;8.640;2023-02-13T09:23:04;101249.78;;;6.89;100.00
54389;BME280;40975;50.390;8.640;2023-02-13T09:25:29;101248.91;;;6.69;100.00
54389;BME280;40975;50.390;8.640;2023-02-13T09:27:55;101242.25;;;6.60;100.00
54389;BME280;40975;50.390;8.640;2023-02-13T09:30:20;101246.34;;;6.87;100.00
54389;BME280;40975;50.390;8.640;2023-02-13T09:32:50;101239.72;;;7.16;100.00
54389;BME280;40975;50.390;8.640;2023-02-13T09:35:16;101234.53;;;7.69;100.00
54389;BME280;40975;50.390;8.640;2023-02-13T09:37:42;101232.09;;;8.85;100.00
54389;BME280;40975;50.390;8.640;2023-02-13T09:40:21;101221.84;;;10.19;97.25
54389;BME280;40975;50.390;8.640;2023-02-13T09:42:50;101221.69;;;12.29;85.69
54389;BME280;40975;50.390;8.640;2023-02-13T09:45:19;101202.81;;;14.74;72.74
54389;BME280;40975;50.390;8.640;2023-02-13T09:47:46;101211.75;;;16.57;63.08
54389;BME280;40975;50.390;8.640;2023-02-13T09:50:24;101196.88;;;17.74;58.20
54389;BME280;40975;50.390;8.640;2023-02-13T09:52:54;101201.38;;;17.93;54.08
54389;BME280;40975;50.390;8.640;2023-02-13T09:55:34;101202.47;;;18.20;52.94
54389;BME280;40975;50.390;8.640;2023-02-13T09:58:42;101214.66;;;18.89;51.50
54389;BME280;40975;50.390;8.640;2023-02-13T10:03:47;101212.28;;;19.32;50.54
54389;BME280;40975;50.390;8.640;2023-02-13T10:06:58;101215.88;;;19.05;50.87
54389;BME280;40975;50.390;8.640;2023-02-13T10:14:51;101211.81;;;19.37;49.75
54389;BME280;40975;50.390;8.640;2023-02-13T10:17:38;101221.81;;;19.26;47.63
54389;BME280;40975;50.390;8.640;2023-02-13T10:20:24;101217.13;;;19.47;47.92
54389;BME280;40975;50.390;8.640;2023-02-13T10:22:58;101210.66;;;19.57;48.26
54389;BME280;40975;50.390;8.640;2023-02-13T10:25:29;101208.81;;;19.58;48.02
54389;BME280;40975;50.390;8.640;2023-02-13T10:28:32;101215.28;;;19.47;48.30
54389;BME280;40975;50.390;8.640;2023-02-13T10:31:04;101211.03;;;19.81;46.68
54389;BME280;40975;50.390;8.640;2023-02-13T10:33:37;101209.19;;;19.81;47.21
54389;BME280;40975;50.390;8.640;2023-02-13T10:38:35;101209.81;;;18.17;48.61
54389;BME280;40975;50.390;8.640;2023-02-13T10:44:00;101206.91;;;18.48;49.23
54389;BME280;40975;50.390;8.640;2023-02-13T10:46:49;101212.09;;;18.88;48.19
54389;BME280;40975;50.390;8.640;2023-02-13T10:52:12;101205.44;;;19.38;46.53
54389;BME280;40975;50.390;8.640;2023-02-13T10:57:25;101204.25;;;18.39;47.55
54389;BME280;40975;50.390;8.640;2023-02-13T11:00:07;101201.97;;;18.06;52.57
54389;BME280;40975;50.390;8.640;2023-02-13T11:02:35;101192.34;;;17.94;48.41
54389;BME280;40975;50.390;8.640;2023-02-13T11:05:20;101188.09;;;17.81;50.56
54389;BME280;40975;50.390;8.640;2023-02-13T11:07:46;101186.69;;;17.87;49.43
54389;BME280;40975;50.390;8.640;2023-02-13T11:10:19;101197.47;;;18.34;49.02
54389;BME280;40975;50.390;8.640;2023-02-13T11:12:45;101184.31;;;17.74;49.88
54389;BME280;40975;50.390;8.640;2023-02-13T11:15:24;101179.81;;;17.25;51.95
54389;BME280;40975;50.390;8.640;2023-02-13T11:17:52;101176.09;;;17.17;51.82
54389;BME280;40975;50.390;8.640;2023-02-13T11:20:36;101185.41;;;17.03;52.93
54389;BME280;40975;50.390;8.640;2023-02-13T11:28:46;101180.41;;;15.09;59.19
54389;BME280;40975;50.390;8.640;2023-02-13T11:33:45;101171.47;;;14.65;60.04
54389;BME280;40975;50.390;8.640;2023-02-13T11:36:19;101171.00;;;14.59;60.55
54389;BME280;40975;50.390;8.640;2023-02-13T11:38:56;101161.41;;;14.68;60.38
54389;BME280;40975;50.390;8.640;2023-02-13T11:41:24;101172.97;;;14.69;60.99
54389;BME280;40975;50.390;8.640;2023-02-13T11:43:53;101154.09;;;14.02;62.46
54389;BME280;40975;50.390;8.640;2023-02-13T11:46:27;101160.13;;;13.46;63.82
54389;BME280;40975;50.390;8.640;2023-02-13T11:48:58;101167.44;;;13.55;66.22
54389;BME280;40975;50.390;8.640;2023-02-13T11:54:28;101157.06;;;13.75;62.70
54389;BME280;40975;50.390;8.640;2023-02-13T11:56:56;101169.28;;;14.24;63.94
54389;BME280;40975;50.390;8.640;2023-02-13T11:59:24;101163.31;;;13.51;64.21
54389;BME280;40975;50.390;8.640;2023-02-13T12:04:49;101154.06;;;13.44;64.26
54389;BME280;40975;50.390;8.640;2023-02-13T12:09:44;101149.03;;;13.63;62.99
54389;BME280;40975;50.390;8.640;2023-02-13T12:12:32;101155.66;;;14.05;66.36
54389;BME280;40975;50.390;8.640;2023-02-13T12:15:03;101156.13;;;13.87;64.01
54389;BME280;40975;50.390;8.640;2023-02-13T12:17:34;101150.56;;;13.90;62.55
54389;BME280;40975;50.390;8.640;2023-02-13T12:20:00;101139.19;;;13.52;61.98
54389;BME280;40975;50.390;8.640;2023-02-13T12:22:41;101143.13;;;13.71;61.29
54389;BME280;40975;50.390;8.640;2023-02-13T12:27:59;101131.34;;;13.74;62.23
54389;BME280;40975;50.390;8.640;2023-02-13T12:30:42;101132.72;;;14.02;61.96
54389;BME280;40975;50.390;8.640;2023-02-13T12:33:32;101129.94;;;14.15;63.35
54389;BME280;40975;50.390;8.640;2023-02-13T12:36:20;101125.56;;;14.48;59.45
54389;BME280;40975;50.390;8.640;2023-02-13T12:47:23;101108.09;;;14.33;59.74
54389;BME280;40975;50.390;8.640;2023-02-13T12:55:47;101109.25;;;13.00;63.01
54389;BME280;40975;50.390;8.640;2023-02-13T13:01:15;101100.72;;;12.71;68.09
54389;BME280;40975;50.390;8.640;2023-02-13T13:11:45;101107.78;;;13.56;65.41
54389;BME280;40975;50.390;8.640;2023-02-13T13:17:07;101100.28;;;13.26;66.37
54389;BME280;40975;50.390;8.640;2023-02-13T13:19:53;101096.94;;;13.11;65.92
54389;BME280;40975;50.390;8.640;2023-02-13T13:22:32;101092.31;;;12.77;66.25
54389;BME280;40975;50.390;8.640;2023-02-13T13:25:24;101085.63;;;13.31;66.17
54389;BME280;40975;50.390;8.640;2023-02-13T13:27:56;101089.84;;;13.58;66.65
54389;BME280;40975;50.390;8.640;2023-02-13T13:30:30;101082.56;;;13.49;66.37
54389;BME280;40975;50.390;8.640;2023-02-13T13:33:04;101082.41;;;13.15;65.62
54389;BME280;40975;50.390;8.640;2023-02-13T13:35:34;101080.38;;;13.54;66.06
54389;BME280;40975;50.390;8.640;2023-02-13T13:38:14;101074.34;;;13.03;68.83
54389;BME280;40975;50.390;8.640;2023-02-13T13:40:57;101076.75;;;12.95;68.42
54389;BME280;40975;50.390;8.640;2023-02-13T13:46:36;101079.31;;;12.97;69.96
54389;BME280;40975;50.390;8.640;2023-02-13T13:49:17;101079.25;;;12.11;69.83
54389;BME280;40975;50.390;8.640;2023-02-13T13:51:48;101083.50;;;12.26;71.30
54389;BME280;40975;50.390;8.640;2023-02-13T14:05:00;101068.47;;;12.25;67.37
54389;BME280;40975;50.390;8.640;2023-02-13T14:07:33;101058.03;;;12.22;67.41
54389;BME280;40975;50.390;8.640;2023-02-13T14:09:59;101060.53;;;12.12;67.77
54389;BME280;40975;50.390;8.640;2023-02-13T14:14:55;101060.25;;;12.28;68.65
54389;BME280;40975;50.390;8.640;2023-02-13T14:20:33;101053.56;;;12.60;69.41
54389;BME280;40975;50.390;8.640;2023-02-13T14:23:28;101052.31;;;12.53;67.93
54389;BME280;40975;50.390;8.640;2023-02-13T14:26:12;101043.00;;;12.34;68.27
54389;BME280;40975;50.390;8.640;2023-02-13T14:36:30;101052.44;;;12.14;67.76
54389;BME280;40975;50.390;8.640;2023-02-13T14:39:15;101054.09;;;12.28;69.82
54389;BME280;40975;50.390;8.640;2023-02-13T14:41:58;101053.88;;;12.18;69.36
54389;BME280;40975;50.390;8.640;2023-02-13T14:44:34;101047.72;;;12.18;70.21
54389;BME280;40975;50.390;8.640;2023-02-13T14:47:29;101043.94;;;12.33;69.96
54389;BME280;40975;50.390;8.640;2023-02-13T14:49:58;101042.66;;;12.02;69.88
54389;BME280;40975;50.390;8.640;2023-02-13T14:52:28;101039.84;;;11.90;71.25
54389;BME280;40975;50.390;8.640;2023-02-13T14:55:06;101047.09;;;11.88;71.66
54389;BME280;40975;50.390;8.640;2023-02-13T14:57:44;101040.50;;;11.81;72.55
54389;BME280;40975;50.390;8.640;2023-02-13T15:00:37;101042.56;;;11.51;71.35
54389;BME280;40975;50.390;8.640;2023-02-13T15:03:19;101034.13;;;11.45;71.55
54389;BME280;40975;50.390;8.640;2023-02-13T15:05:50;101039.66;;;11.55;71.85
54389;BME280;40975;50.390;8.640;2023-02-13T15:08:20;101038.38;;;11.60;71.30
54389;BME280;40975;50.390;8.640;2023-02-13T15:10:52;101031.34;;;11.59;71.01
54389;BME280;40975;50.390;8.640;2023-02-13T15:15:51;101030.50;;;11.33;72.98
54389;BME280;40975;50.390;8.640;2023-02-13T15:18:33;101023.69;;;11.42;73.78
54389;BME280;40975;50.390;8.640;2023-02-13T15:21:01;101031.56;;;11.30;72.83